Time,TemperatureF,DewpointF,PressureIn,WindDirection,WindDirectionDegrees,WindSpeedMPH,WindSpeedGustMPH,Humidity,HourlyPrecipIn,Conditions,Clouds,dailyrainin,SoftwareType,DateUTC
2013-03-20 00:00:00,18.0,3.7,29.12,NW,318,8.0,16.8,53,0.00,,,-99.99,FreeWX 2.04,2013-03-20 05:00:00,
2013-03-20 00:10:00,17.6,4.3,29.12,NW,320,7.0,16.8,55,0.00,,,-99.99,FreeWX 2.04,2013-03-20 05:10:00,
2013-03-20 00:20:00,17.2,3.6,29.12,NNW,328,8.0,15.4,54,0.00,,,-99.99,FreeWX 2.04,2013-03-20 05:20:00,
2013-03-20 00:30:00,17.2,3.9,29.12,NW,318,6.0,12.5,55,0.00,,,-99.99,FreeWX 2.04,2013-03-20 05:30:00,
2013-03-20 00:40:00,17.1,2.5,29.09,NW,311,7.0,14.8,52,0.00,,,-99.99,FreeWX 2.04,2013-03-20 05:40:00,
2013-03-20 00:50:00,16.7,1.8,29.09,NW,313,9.0,19.5,51,0.00,,,-99.99,FreeWX 2.04,2013-03-20 05:50:00,
2013-03-20 01:00:00,16.3,1.4,29.09,WNW,303,7.0,19.5,51,0.00,,,-99.99,FreeWX 2.04,2013-03-20 06:00:00,
2013-03-20 01:10:00,16.0,1.0,29.09,WNW,300,8.0,15.2,51,0.00,,,-99.99,FreeWX 2.04,2013-03-20 06:10:00,
2013-03-20 01:21:00,16.0,1.0,29.09,NW,310,8.0,17.2,51,0.00,,,-99.99,FreeWX 2.04,2013-03-20 06:21:00,
2013-03-20 01:41:00,15.3,-0.4,29.12,NW,308,9.0,17.7,49,0.00,,,-99.99,FreeWX 2.04,2013-03-20 06:41:00,
2013-03-20 01:51:00,14.9,-1.1,29.12,NW,305,8.0,16.8,48,0.00,,,-99.99,FreeWX 2.04,2013-03-20 06:51:00,
2013-03-20 02:02:00,14.7,-0.9,29.12,NW,314,9.0,16.8,49,0.00,,,-99.99,FreeWX 2.04,2013-03-20 07:02:00,
2013-03-20 02:12:00,14.2,-1.8,29.12,NW,304,8.0,18.1,48,0.00,,,-99.99,FreeWX 2.04,2013-03-20 07:12:00,
2013-03-20 02:22:00,13.8,-99.9,29.12,NW,314,10.0,18.1,-999,0.00,,,-99.99,FreeWX 2.04,2013-03-20 07:22:00,
2013-03-20 02:32:00,13.3,-99.9,29.12,WNW,303,8.0,18.1,-999,0.00,,,-99.99,FreeWX 2.04,2013-03-20 07:32:00,
2013-03-20 02:42:00,13.1,-99.9,29.12,NW,314,9.0,15.9,-999,0.00,,,-99.99,FreeWX 2.04,2013-03-20 07:42:00,
2013-03-20 02:52:00,12.6,-99.9,29.12,NW,318,8.0,15.9,-999,0.00,,,-99.99,FreeWX 2.04,2013-03-20 07:52:00,
2013-03-20 03:02:00,12.4,-99.9,29.12,NW,312,7.0,16.8,-999,0.00,,,-99.99,FreeWX 2.04,2013-03-20 08:02:00,
2013-03-20 03:12:00,12.2,-99.9,29.12,NW,313,8.0,17.7,-999,0.00,,,-99.99,FreeWX 2.04,2013-03-20 08:12:00,
2013-03-20 03:22:00,12.0,-99.9,29.12,NW,312,8.0,15.2,-999,0.00,,,-99.99,FreeWX 2.04,2013-03-20 08:22:00,
2013-03-20 03:32:00,11.7,-99.9,29.12,NW,310,7.0,13.4,-999,0.00,,,-99.99,FreeWX 2.04,2013-03-20 08:32:00,
2013-03-20 03:43:00,11.7,-99.9,29.12,NW,313,8.0,14.8,-999,0.00,,,-99.99,FreeWX 2.04,2013-03-20 08:43:00,
2013-03-20 03:53:00,11.3,-99.9,29.12,WNW,303,6.0,13.4,-999,0.00,,,-99.99,FreeWX 2.04,2013-03-20 08:53:00,
2013-03-20 04:03:00,10.9,-99.9,29.12,WNW,301,4.0,13.4,-999,0.00,,,-99.99,FreeWX 2.04,2013-03-20 09:03:00,
2013-03-20 04:13:00,10.9,-99.9,29.12,WNW,303,6.0,10.5,-999,0.00,,,-99.99,FreeWX 2.04,2013-03-20 09:13:00,
2013-03-20 04:23:00,10.8,-99.9,29.12,WNW,297,6.0,12.1,-999,0.00,,,-99.99,FreeWX 2.04,2013-03-20 09:23:00,
2013-03-20 04:33:00,10.8,-99.9,29.12,WNW,299,6.0,13.9,-999,0.00,,,-99.99,FreeWX 2.04,2013-03-20 09:33:00,
2013-03-20 04:43:00,10.6,-99.9,29.12,WNW,301,6.0,13.9,-999,0.00,,,-99.99,FreeWX 2.04,2013-03-20 09:43:00,
2013-03-20 04:53:00,10.4,-99.9,29.12,WNW,299,7.0,15.2,-999,0.00,,,-99.99,FreeWX 2.04,2013-03-20 09:53:00,
2013-03-20 05:04:00,10.2,-99.9,29.12,WNW,299,6.0,12.1,-999,0.00,,,-99.99,FreeWX 2.04,2013-03-20 10:04:00,
2013-03-20 05:14:00,10.0,-99.9,29.12,WNW,300,5.0,12.5,-999,0.00,,,-99.99,FreeWX 2.04,2013-03-20 10:14:00,
2013-03-20 05:24:00,9.9,-99.9,29.12,WNW,299,5.0,15.2,-999,0.00,,,-99.99,FreeWX 2.04,2013-03-20 10:24:00,
2013-03-20 05:34:00,9.9,-99.9,29.12,WNW,298,5.0,11.6,-999,0.00,,,-99.99,FreeWX 2.04,2013-03-20 10:34:00,
2013-03-20 05:44:00,9.5,-99.9,29.14,WNW,296,3.0,10.5,-999,0.00,,,-99.99,FreeWX 2.04,2013-03-20 10:44:00,
2013-03-20 05:54:00,9.5,-99.9,29.14,WNW,282,4.0,11.2,-999,0.00,,,-99.99,FreeWX 2.04,2013-03-20 10:54:00,
2013-03-20 06:04:00,9.3,-99.9,29.14,WNW,284,4.0,13.4,-999,0.00,,,-99.99,FreeWX 2.04,2013-03-20 11:04:00,
2013-03-20 06:14:00,9.3,-99.9,29.12,WNW,293,5.0,13.0,-999,0.00,,,-99.99,FreeWX 2.04,2013-03-20 11:14:00,
2013-03-20 06:25:00,9.1,-99.9,29.12,WNW,299,3.0,9.6,-999,0.00,,,-99.99,FreeWX 2.04,2013-03-20 11:25:00,
2013-03-20 06:35:00,9.1,-99.9,29.12,WNW,297,5.0,13.4,-999,0.00,,,-99.99,FreeWX 2.04,2013-03-20 11:35:00,
2013-03-20 06:45:00,9.1,-99.9,29.14,WNW,300,5.0,11.6,-999,0.00,,,-99.99,FreeWX 2.04,2013-03-20 11:45:00,
2013-03-20 06:55:00,9.1,-99.9,29.14,WNW,303,4.0,12.5,-999,0.00,,,-99.99,FreeWX 2.04,2013-03-20 11:55:00,
2013-03-20 07:05:00,8.8,-99.9,29.14,WNW,284,2.0,11.0,-999,0.00,,,-99.99,FreeWX 2.04,2013-03-20 12:05:00,
2013-03-20 07:15:00,8.8,-99.9,29.14,WNW,294,3.0,12.5,-999,0.00,,,-99.99,FreeWX 2.04,2013-03-20 12:15:00,
2013-03-20 07:25:00,9.0,-99.9,29.12,WNW,302,4.0,11.2,-999,0.00,,,-99.99,FreeWX 2.04,2013-03-20 12:25:00,
2013-03-20 07:35:00,8.8,-99.9,29.12,NW,304,4.0,11.2,-999,0.00,,,-99.99,FreeWX 2.04,2013-03-20 12:35:00,
2013-03-20 07:45:00,9.1,-99.9,29.12,WNW,302,5.0,11.6,-999,0.00,,,-99.99,FreeWX 2.04,2013-03-20 12:45:00,
2013-03-20 07:56:00,10.2,-99.9,29.12,WNW,300,5.0,11.6,-999,0.00,,,-99.99,FreeWX 2.04,2013-03-20 12:56:00,
2013-03-20 08:06:00,10.9,-99.9,29.12,NW,304,6.0,13.9,-999,0.00,,,-99.99,FreeWX 2.04,2013-03-20 13:06:00,
2013-03-20 08:16:00,11.8,-99.9,29.14,NW,304,6.0,12.5,-999,0.00,,,-99.99,FreeWX 2.04,2013-03-20 13:16:00,
2013-03-20 08:26:00,12.7,-99.9,29.14,NW,314,6.0,13.0,-999,0.00,,,-99.99,FreeWX 2.04,2013-03-20 13:26:00,
2013-03-20 08:47:00,14.7,0.0,29.12,NW,309,7.0,14.3,51,0.00,,,-99.99,FreeWX 2.04,2013-03-20 13:47:00,
2013-03-20 08:57:00,15.3,-0.9,29.12,NW,319,7.0,15.2,48,0.00,,,-99.99,FreeWX 2.04,2013-03-20 13:57:00,
2013-03-20 09:07:00,16.3,-0.4,29.12,NW,314,6.0,13.9,47,0.00,,,-99.99,FreeWX 2.04,2013-03-20 14:07:00,
2013-03-20 09:17:00,17.6,0.0,29.12,WNW,302,4.0,12.1,45,0.00,,,-99.99,FreeWX 2.04,2013-03-20 14:17:00,
2013-03-20 09:27:00,17.6,0.0,29.12,NW,318,7.0,14.8,45,0.00,,,-99.99,FreeWX 2.04,2013-03-20 14:27:00,
2013-03-20 09:37:00,18.5,0.3,29.12,NW,312,7.0,13.4,44,0.00,,,-99.99,FreeWX 2.04,2013-03-20 14:37:00,
2013-03-20 09:47:00,20.3,1.4,29.12,NW,309,6.0,14.8,43,0.00,,,-99.99,FreeWX 2.04,2013-03-20 14:47:00,
2013-03-20 09:57:00,20.3,1.4,29.12,NW,307,8.0,15.9,43,0.00,,,-99.99,FreeWX 2.04,2013-03-20 14:57:00,
2013-03-20 10:07:00,21.2,2.3,29.12,NW,311,6.0,18.1,43,0.00,,,-99.99,FreeWX 2.04,2013-03-20 15:07:00,
2013-03-20 10:18:00,21.0,0.5,29.12,NW,312,7.0,15.4,40,0.00,,,-99.99,FreeWX 2.04,2013-03-20 15:18:00,
2013-03-20 10:28:00,20.5,0.0,29.12,NNW,332,7.0,14.3,40,0.00,,,-99.99,FreeWX 2.04,2013-03-20 15:28:00,
2013-03-20 10:38:00,21.7,0.7,29.12,NW,313,7.0,15.9,39,0.00,,,-99.99,FreeWX 2.04,2013-03-20 15:38:00,
2013-03-20 10:48:00,22.6,0.9,29.12,NW,317,7.0,15.4,38,0.00,,,-99.99,FreeWX 2.04,2013-03-20 15:48:00,
2013-03-20 10:58:00,21.9,0.3,29.12,NW,324,6.0,15.4,38,0.00,,,-99.99,FreeWX 2.04,2013-03-20 15:58:00,
2013-03-20 11:08:00,22.6,0.3,29.12,NW,325,9.0,20.1,37,0.00,,,-99.99,FreeWX 2.04,2013-03-20 16:08:00,
2013-03-20 11:18:00,23.7,1.9,29.12,NW,317,8.0,13.9,38,0.00,,,-99.99,FreeWX 2.04,2013-03-20 16:18:00,
2013-03-20 11:28:00,24.1,1.6,29.12,NW,319,8.0,14.8,37,0.00,,,-99.99,FreeWX 2.04,2013-03-20 16:28:00,
2013-03-20 11:38:00,23.7,1.2,29.09,NW,316,7.0,15.9,37,0.00,,,-99.99,FreeWX 2.04,2013-03-20 16:38:00,
2013-03-20 11:49:00,25.5,2.3,29.09,NW,312,5.0,15.9,36,0.00,,,-99.99,FreeWX 2.04,2013-03-20 16:49:00,
2013-03-20 11:59:00,26.2,2.3,29.09,WNW,298,7.0,15.9,35,0.00,,,-99.99,FreeWX 2.04,2013-03-20 16:59:00,
2013-03-20 12:09:00,27.0,3.6,29.09,NW,313,6.0,15.2,36,0.00,,,-99.99,FreeWX 2.04,2013-03-20 17:09:00,
2013-03-20 12:19:00,26.1,2.1,29.09,NW,316,8.0,16.8,35,0.00,,,-99.99,FreeWX 2.04,2013-03-20 17:19:00,
2013-03-20 12:29:00,27.1,2.5,29.09,NW,312,8.0,15.4,34,0.00,,,-99.99,FreeWX 2.04,2013-03-20 17:29:00,
2013-03-20 12:39:00,27.1,2.5,29.09,NW,312,8.0,15.9,34,0.00,,,-99.99,FreeWX 2.04,2013-03-20 17:39:00,
2013-03-20 12:49:00,27.5,2.8,29.09,NW,321,6.0,18.1,34,0.00,,,-99.99,FreeWX 2.04,2013-03-20 17:49:00,
2013-03-20 12:59:00,27.1,2.5,29.06,NW,325,8.0,15.2,34,0.00,,,-99.99,FreeWX 2.04,2013-03-20 17:59:00,
2013-03-20 13:09:00,28.8,3.4,29.06,NW,312,8.0,17.2,33,0.00,,,-99.99,FreeWX 2.04,2013-03-20 18:09:00,
2013-03-20 13:19:00,28.0,2.7,29.06,NW,313,7.0,15.9,33,0.00,,,-99.99,FreeWX 2.04,2013-03-20 18:19:00,
2013-03-20 13:30:00,28.4,3.0,29.06,NW,308,7.0,16.8,33,0.00,,,-99.99,FreeWX 2.04,2013-03-20 18:30:00,
2013-03-20 13:40:00,28.8,3.4,29.06,NW,304,8.0,15.2,33,0.00,,,-99.99,FreeWX 2.04,2013-03-20 18:40:00,
2013-03-20 13:50:00,28.0,2.7,29.06,NNW,328,9.0,20.1,33,0.00,,,-99.99,FreeWX 2.04,2013-03-20 18:50:00,
2013-03-20 14:00:00,28.9,3.6,29.03,NW,319,6.0,13.9,33,0.00,,,-99.99,FreeWX 2.04,2013-03-20 19:00:00,
2013-03-20 14:10:00,28.8,3.4,29.03,NW,324,8.0,16.3,33,0.00,,,-99.99,FreeWX 2.04,2013-03-20 19:10:00,
2013-03-20 14:20:00,28.9,3.6,29.03,NW,309,8.0,15.9,33,0.00,,,-99.99,FreeWX 2.04,2013-03-20 19:20:00,
2013-03-20 14:30:00,29.5,3.4,29.03,NW,312,8.0,15.4,32,0.00,,,-99.99,FreeWX 2.04,2013-03-20 19:30:00,
2013-03-20 14:40:00,28.9,3.6,29.03,NNW,327,8.0,14.3,33,0.00,,,-99.99,FreeWX 2.04,2013-03-20 19:40:00,
2013-03-20 14:50:00,30.4,4.8,29.03,NW,315,6.0,14.3,33,0.00,,,-99.99,FreeWX 2.04,2013-03-20 19:50:00,
2013-03-20 15:00:00,30.4,4.8,29.00,NW,314,6.0,13.0,33,0.00,,,-99.99,FreeWX 2.04,2013-03-20 20:00:00,
2013-03-20 15:10:00,30.0,4.5,29.00,NW,313,8.0,14.3,33,0.00,,,-99.99,FreeWX 2.04,2013-03-20 20:10:00,
2013-03-20 15:21:00,30.4,4.1,29.00,NW,315,8.0,17.7,32,0.00,,,-99.99,FreeWX 2.04,2013-03-20 20:21:00,
2013-03-20 15:31:00,29.7,3.4,29.00,NW,324,8.0,15.9,32,0.00,,,-99.99,FreeWX 2.04,2013-03-20 20:31:00,
2013-03-20 15:41:00,30.2,3.9,28.97,NW,311,6.0,18.6,32,0.00,,,-99.99,FreeWX 2.04,2013-03-20 20:41:00,
2013-03-20 15:51:00,30.4,4.1,28.97,NW,317,8.0,15.4,32,0.00,,,-99.99,FreeWX 2.04,2013-03-20 20:51:00,
2013-03-20 16:01:00,30.4,4.1,28.97,NW,309,7.0,17.2,32,0.00,,,-99.99,FreeWX 2.04,2013-03-20 21:01:00,
2013-03-20 16:22:00,30.4,4.8,28.97,NW,306,8.0,20.6,33,0.00,,,-99.99,FreeWX 2.04,2013-03-20 21:22:00,
2013-03-20 16:32:00,30.2,3.9,28.97,NW,309,7.0,15.9,32,0.00,,,-99.99,FreeWX 2.04,2013-03-20 21:32:00,
2013-03-20 16:42:00,30.0,4.5,28.97,NW,315,7.0,16.3,33,0.00,,,-99.99,FreeWX 2.04,2013-03-20 21:42:00,
2013-03-20 16:52:00,30.2,3.9,28.97,NW,315,6.0,12.1,32,0.00,,,-99.99,FreeWX 2.04,2013-03-20 21:52:00,
2013-03-20 17:02:00,30.0,3.7,28.97,NW,309,6.0,14.8,32,0.00,,,-99.99,FreeWX 2.04,2013-03-20 22:02:00,
2013-03-20 17:12:00,30.2,3.9,28.94,NW,306,5.0,18.6,32,0.00,,,-99.99,FreeWX 2.04,2013-03-20 22:12:00,
2013-03-20 17:22:00,29.7,3.4,28.94,NW,311,7.0,14.8,32,0.00,,,-99.99,FreeWX 2.04,2013-03-20 22:22:00,
2013-03-20 17:32:00,29.7,4.1,28.94,NNW,329,6.0,16.3,33,0.00,,,-99.99,FreeWX 2.04,2013-03-20 22:32:00,
2013-03-20 17:43:00,29.3,3.7,28.94,NNW,328,7.0,13.4,33,0.00,,,-99.99,FreeWX 2.04,2013-03-20 22:43:00,
2013-03-20 17:53:00,28.8,3.4,28.94,NNW,327,6.0,12.1,33,0.00,,,-99.99,FreeWX 2.04,2013-03-20 22:53:00,
2013-03-20 18:03:00,28.4,3.0,28.94,NNW,330,6.0,14.3,33,0.00,,,-99.99,FreeWX 2.04,2013-03-20 23:03:00,
2013-03-20 18:13:00,28.6,3.2,28.94,NW,325,4.0,10.5,33,0.00,,,-99.99,FreeWX 2.04,2013-03-20 23:13:00,
2013-03-20 18:23:00,28.2,2.8,28.94,NW,315,6.0,15.9,33,0.00,,,-99.99,FreeWX 2.04,2013-03-20 23:23:00,
2013-03-20 18:33:00,28.0,2.7,28.94,NW,326,3.0,10.5,33,0.00,,,-99.99,FreeWX 2.04,2013-03-20 23:33:00,
2013-03-20 18:43:00,27.5,2.8,28.94,NNW,331,6.0,11.6,34,0.00,,,-99.99,FreeWX 2.04,2013-03-20 23:43:00,
2013-03-20 18:53:00,27.0,2.3,28.94,NNW,339,1.0,8.3,34,0.00,,,-99.99,FreeWX 2.04,2013-03-20 23:53:00,
2013-03-20 19:03:00,26.4,1.9,28.91,NNW,347,4.0,14.8,34,0.00,,,-99.99,FreeWX 2.04,2013-03-21 00:03:00,
2013-03-20 19:13:00,26.1,1.6,28.91,NNW,343,3.0,9.2,34,0.00,,,-99.99,FreeWX 2.04,2013-03-21 00:13:00,
2013-03-20 19:23:00,25.5,1.0,28.91,NNW,334,4.0,10.1,34,0.00,,,-99.99,FreeWX 2.04,2013-03-21 00:23:00,
2013-03-20 19:34:00,25.0,0.7,28.91,NNW,340,2.0,8.7,34,0.00,,,-99.99,FreeWX 2.04,2013-03-21 00:34:00,
2013-03-20 19:44:00,24.4,0.1,28.91,NNW,348,1.0,8.7,34,0.00,,,-99.99,FreeWX 2.04,2013-03-21 00:44:00,
2013-03-20 19:54:00,23.9,0.3,28.91,North,6,1.0,9.2,35,0.00,,,-99.99,FreeWX 2.04,2013-03-21 00:54:00,
2013-03-20 20:04:00,23.4,0.3,28.91,North,-999,0.0,4.5,36,0.00,,,-99.99,FreeWX 2.04,2013-03-21 01:04:00,
2013-03-20 20:14:00,23.0,1.2,28.91,North,-999,0.0,3.1,38,0.00,,,-99.99,FreeWX 2.04,2013-03-21 01:14:00,
2013-03-20 20:24:00,22.5,2.3,28.91,North,-999,0.0,4.5,41,0.00,,,-99.99,FreeWX 2.04,2013-03-21 01:24:00,
2013-03-20 20:34:00,21.9,2.8,28.91,North,-999,0.0,0.0,43,0.00,,,-99.99,FreeWX 2.04,2013-03-21 01:34:00,
2013-03-20 20:44:00,21.7,3.2,28.91,North,-999,0.0,2.7,44,0.00,,,-99.99,FreeWX 2.04,2013-03-21 01:44:00,
2013-03-20 20:54:00,21.6,4.5,28.91,North,-999,0.0,0.0,47,0.00,,,-99.99,FreeWX 2.04,2013-03-21 01:54:00,
2013-03-20 21:04:00,21.4,5.2,28.91,North,-999,0.0,4.0,49,0.00,,,-99.99,FreeWX 2.04,2013-03-21 02:04:00,
2013-03-20 21:15:00,21.2,5.9,28.91,NNE,32,2.0,6.7,51,0.00,,,-99.99,FreeWX 2.04,2013-03-21 02:15:00,
2013-03-20 21:25:00,20.8,6.1,28.91,NE,38,1.0,6.3,52,0.00,,,-99.99,FreeWX 2.04,2013-03-21 02:25:00,
2013-03-20 21:35:00,20.8,5.2,28.91,NE,43,4.0,8.3,50,0.00,,,-99.99,FreeWX 2.04,2013-03-21 02:35:00,
2013-03-20 21:45:00,20.5,4.8,28.91,NE,43,4.0,9.2,50,0.00,,,-99.99,FreeWX 2.04,2013-03-21 02:45:00,
2013-03-20 21:55:00,20.1,5.4,28.91,NE,46,3.0,8.7,52,0.00,,,-99.99,FreeWX 2.04,2013-03-21 02:55:00,
2013-03-20 22:05:00,19.8,5.4,28.91,NE,45,2.0,7.4,53,0.00,,,-99.99,FreeWX 2.04,2013-03-21 03:05:00,
2013-03-20 22:15:00,19.6,4.5,28.91,NE,49,4.0,8.7,51,0.00,,,-99.99,FreeWX 2.04,2013-03-21 03:15:00,
2013-03-20 22:25:00,19.4,3.9,28.88,NE,47,5.0,11.0,50,0.00,,,-99.99,FreeWX 2.04,2013-03-21 03:25:00,
2013-03-20 22:35:00,19.2,4.5,28.88,NE,44,4.0,8.7,52,0.00,,,-99.99,FreeWX 2.04,2013-03-21 03:35:00,
2013-03-20 22:45:00,18.9,5.0,28.88,NE,54,1.0,5.8,54,0.00,,,-99.99,FreeWX 2.04,2013-03-21 03:45:00,
2013-03-20 22:55:00,18.5,5.5,28.88,NE,46,2.0,7.8,56,0.00,,,-99.99,FreeWX 2.04,2013-03-21 03:55:00,
2013-03-20 23:06:00,18.0,5.0,28.88,ENE,64,1.0,6.9,56,0.00,,,-99.99,FreeWX 2.04,2013-03-21 04:06:00,
2013-03-20 23:16:00,17.6,4.6,28.91,North,-999,0.0,6.3,56,0.00,,,-99.99,FreeWX 2.04,2013-03-21 04:16:00,
2013-03-20 23:36:00,17.2,4.3,28.91,North,-999,0.0,5.8,56,0.00,,,-99.99,FreeWX 2.04,2013-03-21 04:36:00,
2013-03-20 23:57:00,16.0,3.4,28.91,North,-999,0.0,3.6,57,0.00,,,-99.99,FreeWX 2.04,2013-03-21 04:57:00,